Last updated: 2024-06-22 19:02:31 (UTC), process took 72 seconds.
Latest file : 2024-06-22 18:24:24 (UTC or whatever time IFCB is using)

The newest file is on the top of the list.

Time from filename Duration (s) Empty blobs Total blobs Status Temp. (°C) Humidity Longest blob (pix) Largest blob area (kpix) Most common blob lengths (pix)
22.06.2024 18:24 1196.6 29 3494 ok 26.8 -5.304871 1028 270 72 (33%), 80 (27%), 88 (9%)
22.06.2024 18:00 1196.6 30 3510 ok 26.8 -5.301901 1028 117 72 (32%), 80 (30%), 88 (9%)
22.06.2024 17:36 1196.5 22 3361 ok 26.8 -5.310809 1012 195 72 (34%), 80 (30%), 88 (9%)
22.06.2024 17:13 1196.7 19 3466 ok 26.8 -5.307840 920 118 72 (32%), 80 (32%), 88 (8%)
22.06.2024 16:49 1196.6 19 3464 ok 26.7 -5.304871 1152 212 72 (31%), 80 (31%), 88 (10%)
22.06.2024 16:25 1196.6 35 3599 ok 26.7 -5.307840 928 264 80 (31%), 72 (31%), 88 (10%)
22.06.2024 16:01 1196.7 30 3705 ok 26.7 -5.304871 996 237 72 (32%), 80 (31%), 88 (11%)
22.06.2024 15:37 1196.2 26 3599 ok 26.7 -5.304871 1012 414 80 (33%), 72 (30%), 88 (11%)
22.06.2024 15:14 1196.4 28 3620 ok 26.7 -5.307840 1044 133 80 (33%), 72 (30%), 88 (11%)
22.06.2024 14:50 1196.6 22 3791 ok 26.7 -5.301901 992 161 80 (34%), 72 (28%), 88 (12%)
22.06.2024 14:26 1196.7 20 3964 ok 26.7 -5.307840 1212 264 80 (36%), 72 (25%), 88 (14%)
22.06.2024 14:02 1196.5 21 3881 ok 26.7 -5.307840 928 115 80 (36%), 72 (25%), 88 (15%)
22.06.2024 13:38 1196.5 27 3747 ok 26.6 -5.307840 1084 167 80 (34%), 72 (28%), 88 (12%)
22.06.2024 13:15 1196.8 17 4039 ok 26.6 -5.301901 947 365 80 (34%), 72 (30%), 88 (11%)
22.06.2024 12:51 1196.7 25 4336 ok 26.6 -5.301901 1020 139 80 (34%), 72 (30%), 88 (11%)
22.06.2024 12:27 1196.7 19 4200 ok 26.5 -5.301901 1068 91 80 (34%), 72 (29%), 88 (13%)
22.06.2024 12:03 1196.5 13 4150 ok 26.5 -5.307840 1036 186 80 (34%), 72 (28%), 88 (13%)
22.06.2024 11:39 1196.7 21 4300 ok 26.5 -5.310809 1052 191 80 (34%), 72 (29%), 88 (11%)
22.06.2024 11:16 1196.8 30 4176 ok 26.5 -5.304871 1012 168 80 (33%), 72 (29%), 88 (11%)
22.06.2024 10:52 1196.7 30 4089 ok 26.5 -5.304871 1020 156 80 (33%), 72 (31%), 88 (11%)
22.06.2024 10:28 1196.5 25 3926 ok 26.4 -5.316748 1012 152 80 (33%), 72 (28%), 88 (12%)
22.06.2024 10:04 1196.7 28 4571 ok 26.4 -5.307840 1040 476 80 (35%), 72 (29%), 88 (11%)
22.06.2024 09:40 1196.6 25 4793 ok 26.4 -5.304871 1100 143 80 (39%), 72 (26%), 88 (13%)
22.06.2024 09:17 1196.6 16 4761 ok 26.3 -5.307840 1004 98 80 (38%), 72 (27%), 88 (12%)
22.06.2024 08:53 1196.5 23 4737 ok 26.3 -5.304871 1012 99 80 (35%), 72 (29%), 88 (12%)
22.06.2024 08:29 1196.5 28 4663 ok 26.3 -5.307840 1012 97 80 (34%), 72 (31%), 88 (10%)
22.06.2024 08:05 1196.6 22 4509 ok 26.3 -5.322687 1020 130 80 (33%), 72 (31%), 88 (11%)
22.06.2024 07:41 1196.5 21 4176 ok 26.2 -5.301901 1140 96 80 (33%), 72 (32%), 88 (10%)
22.06.2024 07:18 1196.5 30 4079 ok 26.2 -5.313779 1108 296 72 (32%), 80 (32%), 88 (11%)
22.06.2024 06:54 1196.6 19 3841 ok 26.2 -5.304871 1004 169 72 (34%), 80 (30%), 88 (9%)
22.06.2024 06:30 1196.5 23 3914 ok 26.1 -5.304871 1180 113 72 (36%), 80 (29%), 64 (8%)
22.06.2024 06:06 1196.5 25 4063 ok 26.1 -5.304871 944 156 72 (35%), 80 (29%), 64 (8%)
22.06.2024 05:42 1196.5 24 4047 ok 26.1 -5.307840 920 241 72 (37%), 80 (27%), 64 (11%)
22.06.2024 04:53 1196.5 31 3542 ok 25.9 -5.456310 1144 249 72 (35%), 80 (30%), 88 (8%)
22.06.2024 04:29 1196.7 21 4051 ok 25.9 -5.491943 1012 290 72 (37%), 80 (29%), 64 (8%)
22.06.2024 04:05 1196.7 14 3904 ok 25.7 -5.486004 996 127 72 (36%), 80 (28%), 88 (9%)
22.06.2024 03:41 1196.6 29 3960 ok 25.7 -5.477096 1012 138 72 (36%), 80 (29%), 88 (8%)
22.06.2024 03:17 1196.6 24 3860 ok 25.6 -5.488974 1004 132 72 (35%), 80 (29%), 88 (8%)
22.06.2024 02:54 1196.7 22 3771 ok 25.6 -5.494913 1132 119 72 (35%), 80 (29%), 88 (8%)
22.06.2024 02:30 1196.8 23 3620 ok 25.6 -5.491943 1116 245 72 (34%), 80 (28%), 64 (9%)
22.06.2024 02:06 1196.6 27 3725 ok 25.6 -5.477096 1044 154 72 (35%), 80 (28%), 88 (8%)
22.06.2024 01:42 1196.5 28 3455 ok 25.6 -5.494913 1052 400 72 (34%), 80 (29%), 64 (9%)
22.06.2024 01:18 1196.5 26 3829 ok 25.6 -5.328626 1124 74 72 (33%), 80 (31%), 88 (9%)
22.06.2024 00:55 1196.5 20 3735 ok 25.6 -5.307840 1028 276 72 (34%), 80 (28%), 88 (9%)
22.06.2024 00:31 1196.5 19 3813 ok 25.6 -5.316748 996 193 72 (35%), 80 (30%), 88 (9%)
22.06.2024 00:07 1196.3 29 3775 ok 25.6 -5.313779 1056 139 72 (33%), 80 (31%), 88 (9%)
21.06.2024 23:43 1196.6 25 3948 ok 25.6 -5.307840 1012 148 72 (34%), 80 (29%), 88 (9%)
21.06.2024 23:19 1196.5 20 4086 ok 25.6 -5.304871 1012 227 72 (34%), 80 (29%), 64 (9%)
21.06.2024 22:56 1196.8 32 4036 ok 25.7 -5.310809 1028 182 72 (33%), 80 (30%), 88 (9%)
21.06.2024 22:32 1196.8 27 4380 ok 25.7 -5.310809 1036 166 72 (33%), 80 (32%), 88 (9%)
21.06.2024 22:08 1196.5 30 4235 ok 25.6 -5.307840 1012 198 72 (33%), 80 (31%), 88 (10%)
21.06.2024 21:44 1196.6 31 4169 ok 25.6 -5.304871 1012 137 72 (32%), 80 (32%), 88 (9%)
21.06.2024 21:21 1196.6 29 4010 ok 25.6 -5.304871 1068 120 72 (32%), 80 (30%), 88 (10%)
21.06.2024 20:57 1196.5 31 3971 ok 25.5 -5.304871 1020 252 72 (32%), 80 (31%), 88 (11%)
21.06.2024 20:33 1195.9 13 4171 ok 25.5 -5.304871 1156 363 80 (32%), 72 (30%), 88 (12%)
21.06.2024 20:09 1196.5 30 4112 ok 25.5 -5.307840 1020 162 80 (33%), 72 (30%), 88 (12%)
21.06.2024 19:45 1196.7 18 4137 ok 25.4 -5.307840 1172 142 80 (33%), 72 (29%), 88 (12%)
21.06.2024 19:22 1196.6 24 3984 ok 25.4 -5.307840 1012 114 80 (35%), 72 (29%), 88 (12%)
21.06.2024 18:58 1196.3 25 3972 ok 25.4 -5.307840 1012 114 80 (33%), 72 (28%), 88 (13%)
21.06.2024 18:34 1196.5 26 4027 ok 25.3 -5.310809 1004 254 80 (34%), 72 (28%), 88 (13%)
21.06.2024 18:10 1196.7 26 4150 ok 25.3 -5.307840 1008 316 80 (35%), 72 (26%), 88 (14%)
21.06.2024 17:46 1196.6 22 4190 ok 25.2 -5.307840 1028 250 80 (34%), 72 (27%), 88 (16%)
21.06.2024 17:23 1196.2 15 4192 ok 25.1 -5.307840 1004 186 80 (34%), 72 (26%), 88 (15%)
21.06.2024 16:59 1196.6 28 4177 ok 25.1 -5.319718 1004 270 80 (36%), 72 (25%), 88 (16%)
21.06.2024 16:35 1196.6 20 4178 ok 24.9 -5.307840 960 231 80 (37%), 72 (23%), 88 (15%)
21.06.2024 16:11 1196.3 20 4128 ok 24.9 -5.310809 1052 173 80 (35%), 72 (25%), 88 (16%)
21.06.2024 15:47 1196.5 17 4172 ok 24.8 -5.307840 1004 332 80 (36%), 72 (25%), 88 (16%)
21.06.2024 15:24 1196.5 23 4299 ok 24.7 -5.313779 800 91 80 (36%), 72 (24%), 88 (16%)
21.06.2024 15:00 1196.5 18 4077 ok 24.7 -5.307840 928 96 80 (35%), 72 (23%), 88 (17%)
21.06.2024 14:36 1196.7 27 3820 ok 24.6 -5.304871 968 125 80 (36%), 72 (21%), 88 (18%)
21.06.2024 14:12 1196.3 19 3960 ok 24.6 -5.307840 848 117 80 (34%), 72 (22%), 88 (19%)
21.06.2024 13:48 1196.3 24 3892 ok 24.6 -5.307840 1012 109 80 (35%), 72 (21%), 88 (18%)
21.06.2024 13:25 1196.4 24 3659 ok 24.6 -5.307840 1028 338 80 (35%), 72 (21%), 88 (19%)
21.06.2024 13:01 1196.5 34 3593 ok 24.6 -5.304871 1024 138 80 (33%), 72 (21%), 88 (20%)
21.06.2024 12:37 1196.5 32 3567 ok 24.6 -5.301901 960 159 80 (34%), 88 (20%), 72 (19%)
21.06.2024 12:13 1196.3 24 3131 ok 24.6 -5.301901 972 161 80 (36%), 88 (20%), 72 (19%)
21.06.2024 11:49 1196.7 24 4786 ok 24.7 -5.307840 624 245 80 (34%), 88 (24%), 72 (17%)
21.06.2024 11:26 1196.6 25 3920 ok 24.7 -5.304871 1060 133 80 (37%), 88 (22%), 72 (19%)
21.06.2024 11:02 1196.4 22 3818 ok 24.7 -5.301901 1040 266 80 (34%), 72 (21%), 88 (20%)
21.06.2024 10:38 1196.6 18 3739 ok 24.8 -5.301901 920 226 80 (36%), 72 (20%), 88 (19%)
21.06.2024 10:14 1196.3 25 3386 ok 24.8 -5.301901 1060 226 80 (36%), 72 (20%), 88 (19%)
21.06.2024 09:50 1196.7 13 3409 ok 24.8 -5.301901 988 154 80 (35%), 72 (21%), 88 (18%)
21.06.2024 09:27 1196.4 22 3457 ok 24.8 -5.301901 952 183 80 (34%), 72 (21%), 88 (18%)
21.06.2024 08:37 1196.5 21 3109 ok 24.9 -5.304871 1236 407 80 (32%), 72 (22%), 88 (20%)
21.06.2024 08:13 1196.6 31 3225 ok 24.9 -5.284085 1156 95 80 (31%), 72 (21%), 88 (19%)
21.06.2024 07:49 1196.6 25 3603 ok 24.9 -5.301901 1076 267 80 (35%), 88 (20%), 72 (20%)
21.06.2024 07:25 1196.5 27 4075 ok 25.0 -5.186094 768 209 80 (35%), 72 (21%), 88 (20%)
21.06.2024 07:02 1196.7 27 4343 ok 25.0 -5.114829 1052 161 80 (33%), 88 (21%), 72 (20%)
21.06.2024 06:38 1196.6 37 3857 ok 25.1 -5.114829 808 89 80 (32%), 72 (21%), 88 (20%)
21.06.2024 06:14 1196.1 28 3566 ok 25.2 -5.111859 988 123 80 (32%), 72 (24%), 88 (19%)
21.06.2024 05:50 1196.7 23 4511 ok 25.3 -5.111859 752 123 80 (33%), 88 (22%), 72 (20%)
21.06.2024 05:26 1196.3 28 4076 ok 25.3 -5.114829 928 127 80 (30%), 72 (24%), 88 (18%)
21.06.2024 05:03 1196.5 22 3972 ok 25.4 -5.111859 1068 269 72 (37%), 80 (28%), 64 (10%)
21.06.2024 04:39 1195.9 27 3865 ok 25.5 -5.111859 1104 86 72 (32%), 80 (31%), 88 (10%)
21.06.2024 04:15 1196.3 21 4336 ok 25.5 -5.108890 1116 109 72 (36%), 80 (29%), 64 (9%)
21.06.2024 03:51 1196.6 25 4537 ok 25.5 -5.114829 1028 327 72 (36%), 80 (29%), 64 (9%)
21.06.2024 03:27 1196.7 23 4437 ok 25.5 -5.097012 980 147 72 (36%), 80 (30%), 64 (9%)
21.06.2024 03:04 1196.8 28 4364 ok 25.5 -5.097012 1004 103 72 (37%), 80 (30%), 64 (9%)
21.06.2024 02:40 1196.1 27 4511 ok 25.5 -4.921817 1076 150 72 (36%), 80 (30%), 64 (10%)
21.06.2024 02:16 1196.6 31 4442 ok 25.5 -4.924787 984 106 72 (35%), 80 (31%), 64 (10%)
21.06.2024 01:52 1196.5 13 4481 ok 25.5 -4.927756 1180 412 72 (36%), 80 (30%), 64 (9%)
21.06.2024 01:29 1196.6 33 4528 ok 25.5 -4.930726 1052 111 72 (36%), 80 (29%), 64 (9%)
21.06.2024 01:05 1196.7 21 4604 ok 25.5 -4.921817 1164 193 72 (36%), 80 (30%), 64 (10%)
21.06.2024 00:41 1196.7 20 4670 ok 25.6 -4.921817 1020 134 72 (37%), 80 (29%), 64 (10%)
21.06.2024 00:17 1196.7 22 4580 ok 25.6 -4.921817 1108 113 72 (37%), 80 (30%), 64 (9%)
20.06.2024 23:53 1196.6 29 4522 ok 25.6 -4.921817 1028 128 72 (35%), 80 (30%), 64 (10%)
20.06.2024 23:30 1196.5 25 4490 ok 25.7 -4.921817 1004 82 72 (35%), 80 (31%), 64 (9%)
20.06.2024 23:06 1196.1 21 4444 ok 25.7 -4.906970 1048 126 72 (34%), 80 (32%), 88 (10%)
20.06.2024 22:42 1196.7 31 4489 ok 25.9 -4.746622 1084 106 72 (34%), 80 (31%), 88 (10%)
20.06.2024 22:18 1196.6 28 4584 ok 25.9 -4.734745 1156 110 80 (33%), 72 (32%), 88 (9%)
20.06.2024 21:54 1196.5 29 4526 ok 26.0 -4.737714 1012 129 80 (33%), 72 (32%), 64 (9%)
20.06.2024 21:31 1196.6 29 4444 ok 26.0 -4.731775 1140 372 72 (33%), 80 (30%), 88 (10%)
20.06.2024 21:07 1196.2 26 4533 ok 26.1 -4.734745 1068 170 72 (33%), 80 (32%), 64 (9%)
20.06.2024 20:43 1196.5 26 4641 ok 26.1 -4.731775 1016 99 80 (33%), 72 (33%), 88 (10%)
20.06.2024 20:19 1196.6 32 4547 ok 26.2 -4.728806 1076 94 80 (32%), 72 (31%), 88 (11%)
20.06.2024 19:55 1196.5 30 4490 ok 26.2 -4.636754 988 184 80 (34%), 72 (30%), 88 (11%)
20.06.2024 19:32 1196.6 28 4536 ok 26.3 -4.556580 988 118 80 (32%), 72 (30%), 88 (11%)
20.06.2024 19:08 1196.6 20 4459 ok 26.3 -4.544703 1004 146 80 (33%), 72 (30%), 88 (11%)
20.06.2024 18:44 1196.7 30 4415 ok 26.3 -4.538764 1236 104 80 (34%), 72 (29%), 88 (12%)
20.06.2024 18:20 1196.6 22 4524 ok 26.3 -4.535795 1132 108 80 (33%), 72 (30%), 88 (12%)
20.06.2024 17:56 1196.7 26 4544 ok 26.4 -4.541733 1076 89 80 (34%), 72 (29%), 88 (11%)
20.06.2024 17:33 1196.3 28 4604 ok 26.4 -4.354661 1027 141 80 (34%), 72 (29%), 88 (11%)
20.06.2024 17:09 1196.4 25 4550 ok 26.5 -4.354661 1036 132 80 (33%), 72 (30%), 88 (12%)
20.06.2024 16:45 1195.8 12 4439 ok 26.5 -4.351691 1116 104 80 (33%), 72 (29%), 88 (12%)
20.06.2024 16:21 1196.6 18 4366 ok 26.5 -4.345753 1012 277 80 (34%), 72 (29%), 88 (12%)
20.06.2024 15:57 1196.7 23 4375 ok 26.5 -4.321997 1092 174 80 (32%), 72 (29%), 88 (12%)
20.06.2024 15:34 1196.7 24 4341 ok 26.5 -4.164619 1096 147 80 (32%), 72 (29%), 88 (13%)
20.06.2024 15:10 1196.5 20 4323 ok 26.5 -4.161650 1020 127 80 (34%), 72 (29%), 88 (12%)
20.06.2024 14:46 1196.5 22 4303 ok 26.5 -4.167588 1035 490 80 (33%), 72 (28%), 88 (13%)
20.06.2024 14:22 1196.6 22 4217 ok 26.4 -4.155711 996 293 80 (33%), 72 (29%), 88 (12%)
20.06.2024 13:58 1196.6 23 4184 ok 26.4 -3.971608 864 117 80 (34%), 72 (28%), 88 (13%)
20.06.2024 13:35 1196.6 29 4152 ok 26.4 -3.989424 912 93 80 (33%), 72 (30%), 88 (12%)
20.06.2024 13:11 1196.1 32 4054 ok 26.3 -3.974577 1100 106 80 (32%), 72 (30%), 88 (12%)
20.06.2024 12:21 1196.7 22 4080 ok 26.2 -3.784535 1060 292 80 (34%), 72 (28%), 88 (13%)
20.06.2024 11:57 1196.7 15 4379 ok 26.2 -3.781566 1140 212 80 (36%), 72 (27%), 88 (13%)
20.06.2024 11:33 1196.7 23 4404 ok 26.1 -3.781566 1028 178 80 (35%), 72 (27%), 88 (14%)
20.06.2024 11:09 1196.6 27 4482 ok 26.0 -3.784535 1140 180 80 (34%), 72 (29%), 88 (13%)
20.06.2024 10:46 1196.7 21 4511 ok 26.0 -3.594493 1204 156 80 (35%), 72 (28%), 88 (12%)
20.06.2024 10:22 1196.4 26 4381 ok 25.9 -3.594493 1108 108 80 (37%), 72 (28%), 88 (12%)
20.06.2024 09:58 1196.5 30 4400 ok 25.9 -3.591524 1004 166 80 (35%), 72 (27%), 88 (13%)
20.06.2024 09:34 1196.6 20 4432 ok 25.9 -3.401482 1020 117 80 (34%), 72 (28%), 88 (13%)
20.06.2024 09:10 1196.7 22 4382 ok 25.8 -3.374757 1004 92 80 (34%), 72 (28%), 88 (13%)
20.06.2024 08:46 1196.7 21 4253 ok 25.7 -3.217379 960 203 80 (35%), 72 (27%), 88 (14%)
20.06.2024 08:23 1195.7 25 4231 ok 25.6 -3.214409 1012 306 80 (33%), 72 (26%), 88 (14%)
20.06.2024 07:59 1196.4 21 4337 ok 25.4 -3.208470 1172 377 80 (33%), 72 (28%), 88 (14%)
20.06.2024 07:35 1196.5 13 4336 ok 25.4 -3.027337 1028 170 80 (34%), 72 (26%), 88 (15%)
20.06.2024 06:29 1196.4 29 4344 ok 25.0 -2.831356 1064 121 80 (35%), 72 (26%), 88 (15%)
20.06.2024 06:05 1196.5 27 4115 ok 24.9 -2.834325 864 95 80 (35%), 72 (24%), 88 (17%)
20.06.2024 05:41 1196.7 29 4063 ok 24.8 -2.644283 912 196 80 (34%), 72 (25%), 88 (17%)
20.06.2024 05:17 1196.5 29 4650 ok 24.8 -2.486905 984 96 80 (36%), 72 (24%), 88 (18%)
20.06.2024 04:53 1196.4 18 4746 ok 24.8 -2.454241 1052 133 80 (36%), 72 (23%), 88 (18%)
20.06.2024 04:30 1196.5 30 4737 ok 24.9 -2.267169 960 94 80 (36%), 72 (24%), 88 (17%)
20.06.2024 04:06 1196.6 21 4918 ok 24.9 -2.264199 1080 183 80 (37%), 72 (22%), 88 (20%)
20.06.2024 03:42 1196.6 24 4547 ok 24.9 -2.074157 696 141 80 (36%), 72 (21%), 88 (20%)
20.06.2024 03:18 1196.6 37 4733 ok 25.0 -1.887085 736 105 80 (37%), 72 (23%), 88 (19%)
20.06.2024 02:54 1196.6 27 4515 ok 25.0 -1.866299 964 144 80 (37%), 72 (22%), 88 (18%)
20.06.2024 02:31 1196.3 30 4642 ok 25.1 -1.682196 864 114 80 (36%), 72 (23%), 88 (17%)
20.06.2024 02:07 1196.6 17 4891 ok 25.1 -1.313989 1004 88 80 (36%), 72 (26%), 88 (16%)
20.06.2024 01:43 1196.5 33 5058 ok 25.1 -1.144733 888 263 80 (36%), 72 (26%), 88 (16%)
20.06.2024 01:19 1196.6 23 4720 ok 25.2 -0.936875 672 106 80 (39%), 72 (23%), 88 (16%)
20.06.2024 00:55 1196.6 21 5101 ok 25.2 -0.740894 888 245 80 (37%), 72 (28%), 88 (14%)
20.06.2024 00:31 1196.6 29 4735 ok 25.3 -0.550852 1004 130 80 (33%), 72 (30%), 88 (12%)
20.06.2024 00:08 1196.6 17 4892 ok 25.3 -0.334086 980 95 80 (34%), 72 (30%), 88 (11%)
19.06.2024 23:44 1196.6 17 5455 ok 25.3 0.016304 988 131 80 (37%), 72 (27%), 88 (15%)
19.06.2024 23:20 1196.5 16 5367 ok 25.3 0.206346 1020 88 80 (37%), 72 (27%), 88 (14%)
19.06.2024 22:56 1196.7 20 4743 ok 25.3 0.589400 1012 267 80 (35%), 72 (29%), 88 (11%)
19.06.2024 22:32 1196.6 23 4731 ok 25.3 0.939789 988 104 80 (32%), 72 (31%), 88 (11%)
19.06.2024 22:09 1196.5 16 4761 ok 25.2 1.346598 1036 122 80 (34%), 72 (31%), 88 (11%)
19.06.2024 21:45 1196.7 23 5052 ok 25.2 1.729651 1012 151 80 (35%), 72 (29%), 88 (12%)
19.06.2024 21:21 1196.7 21 5186 ok 25.1 2.302747 1004 105 80 (37%), 72 (27%), 88 (13%)
19.06.2024 20:57 1196.3 15 5256 ok 25.0 3.056976 1020 91 80 (39%), 72 (26%), 88 (14%)
19.06.2024 20:33 1196.5 21 5024 ok 24.9 3.630071 1076 169 80 (36%), 72 (26%), 88 (15%)
19.06.2024 20:10 1196.7 21 4709 ok 24.8 4.393208 996 158 80 (36%), 72 (27%), 88 (12%)
19.06.2024 19:46 1196.6 21 4692 ok 24.6 5.349357 1012 254 80 (35%), 72 (28%), 88 (13%)
19.06.2024 19:22 1196.6 19 4680 ok 24.5 6.480700 1104 145 80 (35%), 72 (27%), 88 (14%)
19.06.2024 18:58 1196.6 23 4668 ok 24.3 7.926801 1020 223 80 (34%), 72 (26%), 88 (13%)
19.06.2024 18:34 1196.6 20 4696 ok 24.1 9.518402 1212 469 80 (35%), 72 (25%), 88 (14%)
19.06.2024 18:10 1196.8 15 4648 ok 23.9 11.611833 1012 135 80 (35%), 72 (24%), 88 (16%)
19.06.2024 17:47 1196.9 14 4797 ok 23.7 14.272421 1164 200 80 (36%), 72 (21%), 88 (17%)
19.06.2024 17:23 1196.8 21 5364 ok 23.4 17.785228 1040 412 80 (35%), 72 (20%), 88 (19%)
19.06.2024 16:59 1196.6 19 5566 ok 23.1 22.634267 1040 403 80 (34%), 88 (22%), 72 (18%)
19.06.2024 16:51 0.0 5 586 ok -700 5000.759715 976 72 80 (32%), 88 (26%), 72 (16%)
19.06.2024 16:43 61.6 1 199 ok 22.6 34.036785 648 35 80 (32%), 88 (25%), 72 (14%)
19.06.2024 16:36 0.0 25 187 ok -700 5000.759715 696 45 80 (28%), 88 (18%), 0 (13%)
19.06.2024 13:01 1196.5 10 5357 ok 26.1 -2.454241 1076 639 80 (39%), 72 (27%), 88 (12%)
19.06.2024 12:37 1196.6 19 5461 ok 26.0 -2.454241 996 267 80 (39%), 72 (25%), 88 (14%)
19.06.2024 12:14 1196.6 17 5435 ok 26.0 -2.466119 1060 324 80 (39%), 72 (26%), 88 (14%)
19.06.2024 11:50 1196.6 18 5773 ok 26.0 -2.486905 1068 147 80 (38%), 72 (27%), 88 (12%)
19.06.2024 11:26 1196.4 15 5929 ok 26.0 -2.466119 936 284 80 (36%), 72 (29%), 88 (11%)
19.06.2024 11:02 1196.7 16 6011 ok 25.9 -2.457211 1020 386 80 (36%), 72 (31%), 88 (10%)
19.06.2024 10:38 1196.7 16 6023 ok 25.9 -2.457211 1164 306 80 (37%), 72 (32%), 88 (9%)
19.06.2024 10:15 1196.7 16 5930 ok 25.9 -2.466119 1000 103 80 (35%), 72 (30%), 88 (12%)
19.06.2024 09:51 1196.5 17 5910 ok 25.9 -2.546293 1012 147 80 (35%), 72 (31%), 88 (10%)
19.06.2024 09:27 1196.6 10 5938 ok 25.9 -2.457211 988 87 80 (36%), 72 (31%), 88 (11%)
19.06.2024 09:03 1196.6 18 5673 ok 25.9 -2.599742 1004 144 80 (34%), 72 (31%), 88 (12%)
19.06.2024 08:39 1196.7 19 5192 ok 26.0 -2.501752 1068 499 80 (34%), 72 (31%), 88 (11%)
19.06.2024 08:16 1196.5 21 5708 ok 26.0 -2.578956 1140 343 80 (36%), 72 (32%), 88 (9%)
19.06.2024 07:52 1196.7 14 5968 ok 26.0 -2.629436 1156 136 80 (34%), 72 (33%), 88 (9%)
19.06.2024 07:28 1196.7 23 6022 ok 26.0 -2.596773 1124 117 80 (35%), 72 (33%), 88 (10%)
19.06.2024 07:04 1196.7 18 5836 ok 25.9 -2.611620 1060 412 80 (34%), 72 (34%), 88 (10%)
19.06.2024 06:40 1196.6 14 5778 ok 25.9 -2.641314 1076 140 72 (35%), 80 (33%), 88 (9%)
19.06.2024 06:17 1196.7 19 5996 ok 25.9 -2.638344 1056 127 72 (36%), 80 (34%), 88 (8%)
19.06.2024 05:53 1196.7 21 6001 ok 25.9 -2.638344 1044 384 72 (37%), 80 (31%), 88 (8%)
19.06.2024 05:29 1196.7 20 5932 ok 25.9 -2.632406 1052 119 72 (37%), 80 (32%), 88 (8%)
19.06.2024 05:05 1196.6 21 5981 ok 25.9 -2.635375 968 239 72 (36%), 80 (31%), 88 (8%)
19.06.2024 04:41 1196.6 20 6058 ok 25.9 -2.641314 1216 299 72 (37%), 80 (32%), 88 (8%)
19.06.2024 04:18 1196.6 23 5932 ok 25.9 -2.614589 996 212 72 (38%), 80 (32%), 88 (8%)
19.06.2024 03:54 1196.7 16 6015 ok 25.9 -2.638344 976 183 72 (37%), 80 (32%), 88 (8%)
19.06.2024 03:30 1196.5 12 5891 ok 25.9 -2.626467 1072 444 72 (35%), 80 (33%), 88 (8%)
19.06.2024 03:06 1196.6 23 5913 ok 25.9 -2.644283 972 304 72 (37%), 80 (33%), 88 (8%)
19.06.2024 02:42 1196.6 18 5944 ok 25.9 -2.635375 1156 100 72 (36%), 80 (32%), 88 (8%)
19.06.2024 02:19 1196.5 23 6002 ok 25.9 -2.644283 1004 129 72 (36%), 80 (33%), 88 (7%)
19.06.2024 01:55 1196.7 17 6022 ok 25.9 -2.626467 1052 170 72 (36%), 80 (33%), 88 (8%)
19.06.2024 01:31 1196.7 14 5979 ok 26.0 -2.641314 1068 191 72 (36%), 80 (33%), 88 (8%)
19.06.2024 01:07 1196.6 25 6075 ok 26.0 -2.638344 1064 785 72 (35%), 80 (32%), 88 (9%)
19.06.2024 00:43 1196.7 15 6063 ok 26.0 -2.644283 1132 123 80 (34%), 72 (34%), 88 (8%)
19.06.2024 00:20 1196.7 11 6020 ok 26.1 -2.546293 1359 633 72 (34%), 80 (34%), 88 (9%)
18.06.2024 23:56 1196.6 17 5972 ok 26.1 -2.463149 988 223 80 (34%), 72 (34%), 88 (8%)
18.06.2024 23:32 1196.6 15 6080 ok 26.1 -2.495813 1024 138 72 (34%), 80 (34%), 88 (9%)
18.06.2024 23:08 1196.6 9 6038 ok 26.1 -2.457211 1028 170 80 (35%), 72 (33%), 88 (9%)
18.06.2024 22:45 1196.7 27 6011 ok 26.1 -2.457211 972 465 80 (35%), 72 (32%), 88 (10%)
18.06.2024 22:21 1196.7 11 5907 ok 26.2 -2.451272 1004 187 80 (34%), 72 (33%), 88 (9%)
18.06.2024 21:57 1196.6 23 5888 ok 26.2 -2.454241 1044 216 80 (35%), 72 (32%), 88 (9%)
18.06.2024 21:33 1196.6 22 5889 ok 26.2 -2.472058 1100 128 80 (35%), 72 (32%), 88 (9%)
18.06.2024 21:09 1196.6 14 5822 ok 26.2 -2.457211 1080 358 80 (34%), 72 (33%), 88 (10%)
18.06.2024 20:46 1196.4 14 5794 ok 26.2 -2.454241 1120 100 80 (34%), 72 (32%), 88 (10%)
18.06.2024 19:56 1196.7 14 5826 ok 26.3 -2.454241 1116 160 80 (36%), 72 (31%), 88 (10%)
18.06.2024 19:32 1196.6 16 5842 ok 26.3 -2.454241 1020 126 80 (37%), 72 (29%), 88 (11%)
18.06.2024 19:08 1196.7 21 5738 ok 26.3 -2.454241 980 119 80 (37%), 72 (28%), 88 (13%)
18.06.2024 18:44 1196.7 19 5685 ok 26.3 -2.463149 1132 108 80 (38%), 72 (28%), 88 (12%)
18.06.2024 18:20 1196.7 12 5662 ok 26.3 -2.510660 988 228 80 (38%), 72 (28%), 88 (12%)
18.06.2024 17:57 1196.1 18 5588 ok 26.3 -2.469088 988 207 80 (37%), 72 (27%), 88 (13%)
18.06.2024 17:33 1196.7 13 5276 ok 26.3 -2.519568 980 144 80 (37%), 72 (29%), 88 (12%)
18.06.2024 17:09 1196.5 13 5226 ok 26.3 -2.635375 1068 340 80 (37%), 72 (28%), 88 (12%)
18.06.2024 16:45 1196.6 24 5200 ok 26.3 -2.641314 1359 1081 80 (37%), 72 (27%), 88 (13%)
18.06.2024 16:22 1196.7 17 5216 ok 26.3 -2.602712 1244 183 80 (36%), 72 (29%), 88 (13%)
18.06.2024 15:58 1196.7 13 5245 ok 26.3 -2.638344 996 235 80 (37%), 72 (27%), 88 (13%)
18.06.2024 15:34 1196.7 17 5368 ok 26.3 -2.626467 988 168 80 (36%), 72 (28%), 88 (13%)
18.06.2024 15:10 1196.6 15 5278 ok 26.2 -2.638344 992 146 80 (37%), 72 (28%), 88 (13%)
18.06.2024 14:46 1196.5 12 5201 ok 26.2 -2.638344 968 158 80 (38%), 72 (27%), 88 (13%)
18.06.2024 14:23 1196.5 27 5155 ok 26.2 -2.638344 1252 135 80 (38%), 72 (27%), 88 (12%)
18.06.2024 13:59 1196.6 13 5349 ok 26.2 -2.638344 1060 163 80 (37%), 72 (29%), 88 (13%)
18.06.2024 13:35 1196.7 20 5472 ok 26.2 -2.641314 1072 195 80 (38%), 72 (27%), 88 (13%)
18.06.2024 13:11 1196.7 9 5394 ok 26.1 -2.641314 1044 207 80 (37%), 72 (28%), 88 (14%)
18.06.2024 12:47 1196.7 21 5399 ok 26.1 -2.644283 996 538 80 (38%), 72 (29%), 88 (12%)
18.06.2024 12:24 1196.4 21 5374 ok 26.1 -2.644283 1084 175 80 (36%), 72 (29%), 88 (13%)
18.06.2024 12:00 1196.5 22 5353 ok 26.1 -2.638344 1100 119 80 (37%), 72 (28%), 88 (13%)
18.06.2024 11:36 1196.6 24 5387 ok 26.1 -2.638344 1028 129 80 (39%), 72 (29%), 88 (12%)
18.06.2024 11:12 1196.4 29 5374 ok 26.1 -2.641314 1068 126 80 (37%), 72 (29%), 88 (12%)
18.06.2024 10:48 1196.6 16 5365 ok 26.1 -2.644283 1012 390 80 (37%), 72 (30%), 88 (11%)
18.06.2024 10:25 1196.6 23 5368 ok 26.0 -2.641314 1004 129 80 (37%), 72 (31%), 88 (11%)
18.06.2024 10:01 1196.6 26 5314 ok 26.0 -2.644283 1004 118 80 (37%), 72 (29%), 88 (12%)
18.06.2024 09:37 1196.5 19 5395 ok 26.0 -2.644283 1268 154 80 (36%), 72 (32%), 88 (11%)
18.06.2024 09:13 1196.7 17 5368 ok 25.9 -2.641314 1064 141 80 (36%), 72 (32%), 88 (10%)
18.06.2024 08:50 1196.7 23 5372 ok 25.9 -2.644283 1020 243 80 (36%), 72 (33%), 88 (10%)
18.06.2024 08:26 1196.2 24 5398 ok 25.9 -2.641314 1088 195 80 (37%), 72 (33%), 88 (9%)
18.06.2024 08:02 1196.5 23 5393 ok 25.9 -2.644283 1020 303 80 (35%), 72 (33%), 88 (10%)
18.06.2024 07:38 1196.7 19 5262 ok 25.9 -2.644283 988 154 80 (35%), 72 (35%), 88 (9%)
18.06.2024 07:14 1196.6 21 5155 ok 25.9 -2.641314 1028 204 80 (34%), 72 (34%), 88 (9%)
18.06.2024 06:51 1196.7 30 5055 ok 25.8 -2.644283 1052 114 72 (35%), 80 (33%), 88 (9%)
18.06.2024 06:27 1196.6 21 5100 ok 25.8 -2.644283 1148 135 72 (36%), 80 (33%), 88 (9%)
18.06.2024 06:03 1196.5 22 5124 ok 25.7 -2.641314 988 93 72 (36%), 80 (34%), 88 (9%)
18.06.2024 05:39 1196.5 27 5145 ok 25.7 -2.644283 984 103 72 (36%), 80 (34%), 88 (9%)
18.06.2024 05:15 1196.6 17 5672 ok 25.7 -2.641314 1020 188 72 (38%), 80 (32%), 88 (8%)
18.06.2024 04:52 1196.6 11 5903 ok 25.7 -2.647253 1044 228 72 (38%), 80 (32%), 88 (8%)
18.06.2024 04:28 1196.7 19 5977 ok 25.7 -2.644283 1012 328 72 (38%), 80 (32%), 88 (8%)
18.06.2024 04:04 1196.7 22 5962 ok 25.7 -2.641314 992 303 72 (38%), 80 (32%), 88 (8%)
18.06.2024 03:40 1196.6 15 5623 ok 25.8 -2.644283 1084 126 72 (36%), 80 (33%), 88 (9%)
18.06.2024 03:16 1196.6 32 5149 ok 25.8 -2.644283 1044 236 72 (37%), 80 (33%), 88 (8%)
18.06.2024 02:53 1196.6 22 5808 ok 25.8 -2.644283 1056 246 72 (37%), 80 (34%), 88 (9%)
18.06.2024 02:29 1196.6 25 5174 ok 25.8 -2.644283 1004 179 72 (36%), 80 (33%), 88 (10%)
18.06.2024 02:05 1196.5 10 5973 ok 25.9 -2.641314 1323 1116 72 (36%), 80 (34%), 88 (9%)
18.06.2024 01:41 1196.5 14 6061 ok 25.9 -2.638344 1012 119 72 (35%), 80 (35%), 88 (10%)
18.06.2024 01:17 1196.5 23 5734 ok 25.9 -2.641314 1128 144 72 (35%), 80 (35%), 88 (10%)
18.06.2024 00:54 1196.5 22 5866 ok 25.9 -2.644283 888 160 72 (36%), 80 (35%), 88 (9%)
18.06.2024 00:30 1196.7 24 5948 ok 25.9 -2.641314 968 199 72 (35%), 80 (33%), 64 (9%)
17.06.2024 23:40 1196.6 13 5768 ok 26.0 -2.641314 872 232 72 (36%), 80 (34%), 88 (10%)
17.06.2024 23:16 1196.4 18 5707 ok 26.0 -2.644283 1012 350 80 (37%), 72 (34%), 88 (9%)
17.06.2024 22:52 1196.6 13 5828 ok 26.0 -2.641314 980 89 72 (35%), 80 (35%), 88 (9%)
17.06.2024 22:29 1196.6 18 5810 ok 26.0 -2.644283 988 83 80 (35%), 72 (35%), 88 (10%)
17.06.2024 22:05 1196.6 14 5793 ok 26.1 -2.641314 1060 747 80 (37%), 72 (32%), 88 (12%)
17.06.2024 21:41 1196.6 16 5791 ok 26.1 -2.644283 856 122 80 (41%), 72 (27%), 88 (15%)
17.06.2024 21:17 1196.7 10 6046 ok 26.1 -2.638344 896 108 80 (39%), 72 (27%), 88 (15%)
17.06.2024 20:53 1196.6 24 6288 ok 26.1 -2.641314 1116 95 80 (38%), 72 (28%), 88 (15%)
17.06.2024 20:30 1196.7 16 5965 ok 26.1 -2.641314 944 128 80 (37%), 72 (31%), 88 (11%)
17.06.2024 20:06 1196.7 29 5751 ok 26.1 -2.644283 968 110 80 (38%), 72 (29%), 88 (12%)
17.06.2024 19:42 1196.7 13 5899 ok 26.2 -2.641314 1040 247 80 (38%), 72 (30%), 88 (12%)
17.06.2024 19:18 1196.7 19 6070 ok 26.2 -2.644283 988 178 80 (37%), 72 (30%), 88 (11%)
17.06.2024 18:54 1196.6 21 5968 ok 26.2 -2.638344 1140 254 80 (39%), 72 (29%), 88 (12%)
17.06.2024 18:31 1196.6 23 6122 ok 26.2 -2.644283 1152 103 80 (39%), 72 (28%), 88 (13%)
17.06.2024 18:07 1196.6 18 5913 ok 26.2 -2.641314 856 102 80 (39%), 72 (26%), 88 (14%)
17.06.2024 17:43 1196.6 16 6068 ok 26.2 -2.644283 992 146 80 (40%), 72 (25%), 88 (15%)
17.06.2024 17:19 1196.5 13 6191 ok 26.2 -2.641314 988 209 80 (38%), 72 (25%), 88 (18%)
17.06.2024 16:56 1196.6 25 6304 ok 26.2 -2.644283 996 69 80 (38%), 72 (25%), 88 (17%)
17.06.2024 16:32 1196.6 25 5903 ok 26.2 -2.641314 872 159 80 (39%), 72 (26%), 88 (16%)
17.06.2024 16:08 1196.5 17 6006 ok 26.2 -2.641314 988 88 80 (38%), 72 (26%), 88 (16%)
17.06.2024 15:44 1196.7 14 6061 ok 26.2 -2.644283 1012 91 80 (40%), 72 (24%), 88 (16%)
17.06.2024 15:20 1196.6 12 5979 ok 26.2 -2.647253 872 142 80 (41%), 72 (24%), 88 (17%)
17.06.2024 14:57 1196.6 15 6051 ok 26.2 -2.644283 1156 390 80 (40%), 72 (23%), 88 (18%)
17.06.2024 14:33 1196.2 10 6030 ok 26.2 -2.647253 1036 93 80 (41%), 72 (25%), 88 (15%)
17.06.2024 14:09 1196.7 17 6153 ok 26.2 -2.641314 960 73 80 (41%), 72 (26%), 88 (16%)
17.06.2024 13:45 1196.7 22 5901 ok 26.2 -2.644283 848 159 80 (41%), 72 (24%), 88 (17%)
17.06.2024 13:21 1196.5 15 5746 ok 26.2 -2.644283 832 105 80 (41%), 72 (25%), 88 (18%)
17.06.2024 12:58 1196.7 14 5668 ok 26.2 -2.638344 1072 171 80 (41%), 72 (25%), 88 (17%)
17.06.2024 12:34 1196.7 18 5606 ok 26.2 -2.644283 784 58 80 (41%), 72 (25%), 88 (17%)
17.06.2024 12:10 1196.6 25 5647 ok 26.2 -2.638344 980 538 80 (39%), 72 (24%), 88 (18%)
17.06.2024 11:46 1196.5 17 6338 ok 26.2 -2.644283 988 81 80 (39%), 72 (22%), 88 (21%)
17.06.2024 11:22 1196.5 15 6142 ok 26.2 -2.638344 1339 247 80 (39%), 72 (25%), 88 (18%)
17.06.2024 10:59 1196.7 16 6345 ok 26.2 -2.644283 1136 301 80 (36%), 72 (24%), 88 (20%)
17.06.2024 10:35 1196.5 22 5890 ok 26.1 -2.641314 944 239 80 (36%), 72 (26%), 88 (18%)
17.06.2024 10:11 1196.6 19 5585 ok 26.1 -2.647253 988 136 80 (38%), 72 (27%), 88 (16%)
17.06.2024 09:47 1196.7 25 5437 ok 26.1 -2.650222 512 89 80 (37%), 72 (27%), 88 (16%)
17.06.2024 09:23 1196.7 22 5743 ok 26.1 -2.647253 776 93 80 (35%), 72 (26%), 88 (18%)
17.06.2024 09:00 1196.6 20 5814 ok 26.0 -2.644283 1044 478 80 (35%), 72 (26%), 88 (19%)
17.06.2024 08:36 1196.2 27 5954 ok 26.0 -2.644283 988 128 80 (36%), 72 (27%), 88 (18%)
17.06.2024 08:12 1196.6 16 5866 ok 26.0 -2.644283 1048 183 80 (37%), 72 (27%), 88 (18%)
17.06.2024 07:48 1196.6 26 5818 ok 25.9 -2.662100 992 168 80 (38%), 72 (27%), 88 (17%)
17.06.2024 07:24 1196.3 25 5754 ok 25.9 -2.650222 960 80 80 (37%), 72 (27%), 88 (18%)
17.06.2024 07:01 1196.5 24 5776 ok 25.7 -2.673977 972 209 80 (37%), 72 (29%), 88 (16%)
17.06.2024 06:37 1196.5 18 5638 ok 25.7 -2.671008 720 175 80 (37%), 72 (29%), 88 (15%)
17.06.2024 06:13 1196.7 23 5103 ok 25.7 -2.774937 972 71 80 (35%), 72 (29%), 88 (16%)
17.06.2024 05:49 1196.6 29 5182 ok 25.6 -2.757121 768 187 80 (37%), 72 (30%), 88 (15%)
17.06.2024 05:25 1196.5 29 4964 ok 25.6 -2.813539 912 119 80 (35%), 72 (33%), 88 (12%)
17.06.2024 05:02 1196.7 19 4917 ok 25.6 -2.807601 972 100 80 (35%), 72 (34%), 88 (11%)
17.06.2024 04:38 1196.6 13 5177 ok 25.6 -2.819478 768 79 72 (37%), 80 (35%), 88 (8%)
17.06.2024 04:14 1196.2 19 5132 ok 25.6 -2.828386 920 95 72 (40%), 80 (32%), 64 (8%)
17.06.2024 03:24 1196.6 22 5312 ok 25.6 -2.792753 980 475 72 (38%), 80 (35%), 88 (8%)
17.06.2024 03:00 1196.7 27 5365 ok 25.7 -2.647253 1084 164 72 (36%), 80 (35%), 88 (8%)
17.06.2024 02:37 1196.7 20 5164 ok 25.7 -2.730396 1036 108 72 (38%), 80 (33%), 88 (9%)
17.06.2024 02:13 1196.7 24 5052 ok 25.7 -2.819478 996 111 72 (38%), 80 (33%), 88 (8%)
17.06.2024 01:49 1196.6 15 4787 ok 25.8 -2.718518 1020 78 72 (38%), 80 (33%), 64 (8%)
17.06.2024 01:25 1196.6 21 4963 ok 25.8 -2.813539 1359 742 72 (37%), 80 (34%), 88 (9%)
17.06.2024 01:01 1196.7 20 5013 ok 25.8 -2.748212 1140 120 72 (39%), 80 (32%), 64 (8%)
17.06.2024 00:38 1196.1 17 4929 ok 25.8 -2.786815 1283 803 72 (36%), 80 (35%), 88 (9%)
17.06.2024 00:14 1196.7 22 5065 ok 25.8 -2.810570 1008 107 72 (37%), 80 (34%), 88 (8%)
16.06.2024 23:50 1196.5 15 5260 ok 25.8 -2.712580 1035 697 80 (36%), 72 (35%), 88 (10%)
16.06.2024 23:26 1196.6 18 5143 ok 25.8 -2.697733 1004 178 72 (35%), 80 (35%), 88 (9%)
16.06.2024 23:03 1196.7 18 5246 ok 25.9 -2.831356 1156 94 80 (37%), 72 (34%), 88 (9%)
16.06.2024 22:39 1196.8 26 5215 ok 25.8 -2.783845 1016 135 80 (36%), 72 (35%), 88 (9%)
16.06.2024 22:15 1196.6 25 5203 ok 25.8 -2.751182 896 102 80 (36%), 72 (35%), 88 (9%)
16.06.2024 21:51 1196.4 21 5111 ok 25.8 -2.807601 1004 200 80 (36%), 72 (35%), 88 (9%)
16.06.2024 21:27 1196.7 21 5143 ok 25.7 -2.662100 992 102 80 (36%), 72 (34%), 88 (9%)
16.06.2024 21:04 1196.6 21 5112 ok 25.7 -2.783845 992 97 80 (36%), 72 (34%), 88 (9%)
16.06.2024 20:40 1196.5 35 4995 ok 25.7 -2.801662 1068 155 80 (35%), 72 (35%), 88 (10%)
16.06.2024 20:16 1196.6 30 4842 ok 25.7 -2.831356 1092 373 80 (36%), 72 (33%), 88 (10%)
16.06.2024 19:52 1196.5 18 4874 ok 25.7 -2.757121 988 79 80 (36%), 72 (32%), 88 (10%)
16.06.2024 19:28 1196.6 17 4855 ok 25.7 -2.816509 1092 76 80 (36%), 72 (33%), 88 (11%)
16.06.2024 19:05 1196.5 18 4815 ok 25.7 -2.774937 1104 431 80 (36%), 72 (33%), 88 (11%)
16.06.2024 18:41 1196.6 32 4809 ok 25.7 -2.679916 1060 629 80 (36%), 72 (33%), 88 (11%)
16.06.2024 18:17 1196.5 14 4747 ok 25.7 -2.813539 1008 140 80 (36%), 72 (33%), 88 (11%)
16.06.2024 17:53 1196.3 28 4928 ok 25.7 -2.834325 1024 136 80 (36%), 72 (32%), 88 (11%)
16.06.2024 17:29 1196.7 14 5051 ok 25.7 -2.819478 1028 119 80 (36%), 72 (32%), 88 (11%)
16.06.2024 17:06 1196.6 19 5327 ok 25.7 -2.792753 1076 138 80 (37%), 72 (33%), 88 (11%)
16.06.2024 16:42 1196.5 18 5230 ok 25.8 -2.691794 1052 142 80 (36%), 72 (33%), 88 (12%)
16.06.2024 16:18 1196.6 18 5306 ok 25.8 -2.834325 1020 90 80 (36%), 72 (33%), 88 (11%)
16.06.2024 15:54 1196.6 20 5229 ok 25.8 -2.831356 980 519 80 (36%), 72 (33%), 88 (11%)
16.06.2024 15:31 1196.5 20 5223 ok 25.9 -2.822448 1084 523 80 (35%), 72 (33%), 88 (11%)
16.06.2024 15:07 1196.7 16 5032 ok 25.8 -2.754151 1052 136 80 (36%), 72 (35%), 88 (9%)
16.06.2024 14:43 1196.5 18 5102 ok 25.9 -2.831356 1004 106 80 (36%), 72 (33%), 88 (10%)
16.06.2024 14:19 1196.6 16 5042 ok 25.9 -2.665069 980 430 80 (37%), 72 (32%), 88 (11%)
16.06.2024 13:55 1196.6 14 5119 ok 25.9 -2.816509 1076 140 80 (37%), 72 (33%), 88 (10%)
16.06.2024 13:32 1196.5 16 5054 ok 25.9 -2.831356 988 176 80 (37%), 72 (32%), 88 (10%)
16.06.2024 13:08 1196.7 20 5111 ok 25.9 -2.760090 996 90 80 (36%), 72 (32%), 88 (10%)
16.06.2024 12:44 1196.5 34 4924 ok 25.9 -2.813539 1188 174 80 (35%), 72 (32%), 88 (11%)
16.06.2024 12:20 1196.4 13 4784 ok 25.9 -2.780876 996 148 80 (35%), 72 (32%), 88 (10%)
16.06.2024 11:56 1196.5 24 4874 ok 25.9 -2.825417 976 86 80 (34%), 72 (34%), 88 (10%)
16.06.2024 11:33 1196.5 28 4789 ok 25.9 -2.742274 1004 125 72 (34%), 80 (34%), 88 (10%)
16.06.2024 11:09 1196.7 15 4858 ok 25.9 -2.831356 1004 110 72 (34%), 80 (34%), 88 (11%)
16.06.2024 10:45 1196.5 18 5046 ok 26.0 -2.816509 960 238 80 (36%), 72 (33%), 88 (9%)
16.06.2024 10:21 1196.7 30 4946 ok 26.0 -2.831356 1064 136 80 (35%), 72 (33%), 88 (10%)
16.06.2024 09:57 1196.7 15 4905 ok 26.0 -2.810570 1008 85 80 (36%), 72 (33%), 88 (10%)
16.06.2024 09:34 1196.7 14 4812 ok 26.0 -2.828386 996 140 80 (34%), 72 (34%), 88 (11%)
16.06.2024 09:10 1196.7 27 4770 ok 26.0 -2.825417 1208 408 72 (34%), 80 (34%), 88 (10%)
16.06.2024 08:46 1196.2 18 4677 ok 26.0 -2.685855 1168 136 72 (35%), 80 (33%), 88 (10%)
16.06.2024 08:22 1196.4 18 4678 ok 26.0 -2.777906 1012 328 72 (35%), 80 (33%), 88 (10%)
16.06.2024 07:59 1196.7 25 4700 ok 26.0 -2.834325 1016 131 72 (36%), 80 (31%), 64 (10%)
16.06.2024 07:09 1196.7 25 4811 ok 26.1 -2.831356 988 180 72 (34%), 80 (32%), 88 (9%)
16.06.2024 06:45 1196.6 24 4808 ok 26.1 -2.816509 960 88 72 (36%), 80 (31%), 64 (9%)
16.06.2024 06:21 1196.6 14 4799 ok 26.1 -2.831356 1136 114 72 (36%), 80 (32%), 88 (9%)
16.06.2024 05:57 1196.4 19 4743 ok 26.1 -2.834325 996 178 72 (36%), 80 (31%), 64 (9%)
16.06.2024 05:33 1196.7 19 4680 ok 26.1 -2.828386 960 174 72 (35%), 80 (31%), 88 (9%)
16.06.2024 05:10 1196.5 13 4531 ok 26.1 -2.819478 1012 211 72 (36%), 80 (32%), 88 (9%)
16.06.2024 04:46 1196.4 17 4267 ok 26.1 -2.831356 1036 468 72 (36%), 80 (31%), 88 (10%)
16.06.2024 04:22 1196.6 29 4266 ok 26.1 -2.834325 980 224 72 (35%), 80 (30%), 88 (9%)
16.06.2024 03:58 1196.6 18 3980 ok 26.1 -2.819478 1132 110 72 (35%), 80 (32%), 88 (10%)
16.06.2024 03:35 1196.2 23 3765 ok 26.2 -2.834325 856 164 72 (36%), 80 (32%), 88 (10%)
16.06.2024 03:11 1196.6 16 3774 ok 26.2 -2.831356 896 195 72 (35%), 80 (31%), 88 (9%)
16.06.2024 02:47 1196.4 26 3910 ok 26.2 -2.831356 1140 184 72 (36%), 80 (31%), 88 (9%)
16.06.2024 02:23 1196.5 14 3629 ok 26.2 -2.825417 1100 238 72 (36%), 80 (33%), 88 (9%)
16.06.2024 01:59 1196.2 24 3655 ok 26.2 -2.834325 992 138 72 (34%), 80 (32%), 88 (9%)
16.06.2024 01:36 1196.7 24 3695 ok 26.2 -2.834325 1080 114 72 (35%), 80 (30%), 88 (9%)
16.06.2024 01:12 1196.4 22 3650 ok 26.2 -2.834325 1156 125 72 (36%), 80 (30%), 88 (8%)
16.06.2024 00:48 1196.6 18 3640 ok 26.2 -2.831356 1096 93 72 (34%), 80 (29%), 88 (10%)
16.06.2024 00:24 1196.5 23 3507 ok 26.2 -2.834325 1004 276 72 (34%), 80 (31%), 88 (9%)
16.06.2024 00:00 1196.7 19 3493 ok 26.2 -2.831356 980 180 72 (33%), 80 (30%), 88 (9%)
15.06.2024 23:37 1196.2 25 3468 ok 26.2 -2.834325 992 188 72 (33%), 80 (30%), 88 (10%)
15.06.2024 23:13 1196.3 25 3599 ok 26.2 -2.831356 1036 319 72 (34%), 80 (30%), 88 (10%)
15.06.2024 22:49 1196.5 26 3707 ok 26.2 -2.834325 1044 385 72 (33%), 80 (31%), 88 (9%)
15.06.2024 22:25 1196.5 31 3746 ok 26.2 -2.831356 1108 675 72 (32%), 80 (31%), 88 (11%)
15.06.2024 22:02 1196.3 27 3774 ok 26.2 -2.834325 1004 128 72 (32%), 80 (32%), 88 (11%)
15.06.2024 21:38 1196.6 18 3804 ok 26.2 -2.837295 980 113 72 (33%), 80 (32%), 88 (10%)
15.06.2024 21:14 1196.4 24 3962 ok 26.2 -2.831356 988 230 72 (32%), 80 (31%), 88 (10%)
15.06.2024 20:50 1196.5 20 3975 ok 26.2 -2.831356 1032 223 80 (33%), 72 (32%), 88 (10%)
15.06.2024 20:26 1196.7 21 4045 ok 26.2 -2.831356 1032 94 80 (33%), 72 (32%), 88 (11%)
15.06.2024 20:03 1196.5 25 4110 ok 26.2 -2.831356 1004 96 80 (33%), 72 (32%), 88 (10%)
15.06.2024 19:39 1196.4 19 3978 ok 26.2 -2.834325 1088 113 80 (33%), 72 (31%), 88 (10%)
15.06.2024 19:15 1196.3 17 3984 ok 26.2 -2.837295 1132 196 80 (34%), 72 (32%), 88 (10%)
15.06.2024 18:51 1196.4 20 3823 ok 26.2 -2.831356 988 380 80 (35%), 72 (30%), 88 (12%)
15.06.2024 18:27 1196.2 27 3719 ok 26.1 -2.831356 1096 89 80 (35%), 72 (31%), 88 (12%)
15.06.2024 18:04 1196.4 21 3741 ok 26.1 -2.825417 1212 244 80 (36%), 72 (28%), 88 (12%)
15.06.2024 17:40 1196.5 24 3681 ok 26.1 -2.834325 1140 832 80 (37%), 72 (28%), 88 (13%)
15.06.2024 17:16 1196.3 32 3733 ok 26.1 -2.837295 1012 315 80 (36%), 72 (29%), 88 (13%)
15.06.2024 16:52 1196.6 19 3780 ok 26.1 -2.831356 1044 162 80 (38%), 72 (28%), 88 (12%)
15.06.2024 16:29 1196.7 26 3653 ok 26.1 -2.834325 992 129 80 (40%), 72 (26%), 88 (12%)
15.06.2024 16:05 1196.0 24 3512 ok 26.1 -2.834325 1116 287 80 (38%), 72 (26%), 88 (13%)
15.06.2024 15:41 1196.5 19 3417 ok 26.0 -2.837295 996 154 80 (37%), 72 (27%), 88 (13%)
15.06.2024 15:17 1196.6 17 3821 ok 26.0 -2.837295 1012 121 80 (37%), 72 (26%), 88 (14%)
15.06.2024 14:53 1196.3 17 3692 ok 26.0 -2.831356 1132 749 80 (38%), 72 (26%), 88 (14%)
15.06.2024 14:30 1196.6 16 3659 ok 26.0 -2.837295 1012 107 80 (37%), 72 (27%), 88 (14%)
15.06.2024 14:06 1196.7 16 3587 ok 25.9 -2.837295 996 193 80 (37%), 72 (27%), 88 (14%)
15.06.2024 13:42 1196.3 23 3605 ok 25.9 -2.837295 1012 120 80 (39%), 72 (25%), 88 (13%)
15.06.2024 13:18 1196.5 21 3423 ok 25.9 -2.834325 1036 141 80 (38%), 72 (27%), 88 (14%)
15.06.2024 12:55 1196.7 23 3402 ok 25.7 -2.837295 1068 134 80 (38%), 72 (26%), 88 (13%)
15.06.2024 12:31 1196.7 25 3364 ok 25.7 -2.834325 1136 190 80 (38%), 72 (27%), 88 (13%)
15.06.2024 12:07 1196.6 20 3447 ok 25.6 -2.834325 988 126 80 (37%), 72 (26%), 88 (15%)
15.06.2024 11:43 1196.6 12 3797 ok 25.6 -2.837295 1084 144 80 (36%), 72 (29%), 88 (12%)
15.06.2024 10:53 1196.6 19 3861 ok 25.6 -2.837295 1004 102 80 (38%), 72 (27%), 88 (13%)
15.06.2024 10:30 1196.5 19 3507 ok 25.6 -2.837295 1016 79 80 (37%), 72 (26%), 88 (14%)
15.06.2024 10:06 1196.3 25 3500 ok 25.5 -2.837295 996 168 80 (36%), 72 (26%), 88 (14%)
15.06.2024 09:42 1196.6 15 3406 ok 25.5 -2.973887 1076 458 80 (37%), 72 (27%), 88 (13%)
15.06.2024 09:18 1196.7 19 3355 ok 25.5 -3.015459 1060 121 80 (38%), 72 (27%), 88 (12%)
15.06.2024 08:54 1196.7 23 3605 ok 25.5 -2.997642 1184 146 80 (37%), 72 (26%), 88 (14%)
15.06.2024 08:31 1196.6 27 3305 ok 25.5 -2.967948 1028 301 80 (34%), 72 (29%), 88 (12%)
15.06.2024 08:07 1196.6 23 3334 ok 25.4 -3.021398 1300 117 80 (34%), 72 (28%), 88 (13%)
15.06.2024 07:43 1196.5 29 3571 ok 25.4 -3.018428 1044 262 80 (35%), 72 (28%), 88 (12%)
15.06.2024 07:19 1196.4 23 3835 ok 25.4 -3.018428 1012 281 80 (34%), 72 (28%), 88 (13%)
15.06.2024 06:56 1196.7 26 4159 ok 25.3 -3.015459 996 127 80 (35%), 72 (28%), 88 (12%)
15.06.2024 06:32 1196.6 19 4277 ok 25.3 -3.021398 1220 143 80 (32%), 72 (30%), 88 (13%)
15.06.2024 06:08 1196.6 20 3893 ok 25.3 -3.021398 980 96 80 (33%), 72 (31%), 88 (12%)
15.06.2024 05:44 1196.6 16 3980 ok 25.2 -3.021398 1004 155 80 (34%), 72 (30%), 88 (11%)
15.06.2024 05:20 1195.6 27 3610 ok 25.2 -3.018428 996 178 80 (33%), 72 (31%), 88 (12%)
15.06.2024 04:57 1196.3 16 3890 ok 25.2 -3.018428 1100 140 72 (32%), 80 (31%), 88 (12%)
15.06.2024 04:33 1196.3 20 3792 ok 25.2 -3.018428 1028 113 80 (34%), 72 (31%), 88 (11%)
15.06.2024 04:09 1196.7 23 3758 ok 25.2 -3.021398 1012 113 80 (33%), 72 (32%), 88 (11%)
15.06.2024 03:45 1196.5 24 3917 ok 25.1 -3.021398 1020 110 80 (32%), 72 (30%), 88 (13%)
15.06.2024 03:21 1196.6 23 3964 ok 25.1 -3.021398 1308 225 80 (32%), 72 (32%), 88 (12%)
15.06.2024 02:58 1196.5 20 4063 ok 25.1 -3.021398 1076 139 72 (32%), 80 (32%), 88 (11%)
15.06.2024 02:34 1196.7 24 3992 ok 25.1 -3.021398 1048 119 80 (32%), 72 (32%), 88 (12%)
15.06.2024 02:10 1196.6 30 4018 ok 25.1 -3.021398 1004 139 80 (33%), 72 (30%), 88 (13%)
15.06.2024 01:46 1196.6 20 4125 ok 25.1 -3.021398 920 134 72 (32%), 80 (32%), 88 (11%)
15.06.2024 01:22 1196.3 22 4206 ok 25.1 -3.024367 996 173 80 (33%), 72 (33%), 88 (10%)
15.06.2024 00:59 1196.6 25 4332 ok 25.2 -3.024367 996 492 72 (34%), 80 (33%), 88 (10%)
15.06.2024 00:35 1196.6 17 4941 ok 25.2 -3.021398 980 139 72 (34%), 80 (33%), 88 (11%)
15.06.2024 00:11 1196.7 21 5110 ok 25.2 -3.021398 968 83 72 (34%), 80 (33%), 88 (10%)
14.06.2024 23:47 1196.5 25 5487 ok 25.2 -3.027337 1060 95 80 (33%), 72 (33%), 88 (11%)
14.06.2024 23:24 1196.7 18 5620 ok 25.2 -3.021398 1012 283 80 (34%), 72 (33%), 88 (11%)
14.06.2024 23:00 1196.4 18 5640 ok 25.3 -3.024367 1100 203 72 (33%), 80 (32%), 88 (12%)
14.06.2024 22:36 1196.7 18 5275 ok 25.3 -3.021398 1004 122 72 (34%), 80 (33%), 88 (10%)
14.06.2024 22:12 1196.6 13 5296 ok 25.3 -3.021398 1052 104 72 (34%), 80 (31%), 88 (10%)
14.06.2024 21:48 1196.6 28 5487 ok 25.4 -3.018428 1132 297 72 (34%), 80 (33%), 88 (9%)
14.06.2024 21:25 1196.7 14 5339 ok 25.4 -3.018428 1060 113 80 (37%), 72 (29%), 88 (13%)
14.06.2024 21:01 1196.7 17 5551 ok 25.4 -3.018428 980 151 80 (34%), 72 (33%), 88 (10%)
14.06.2024 20:37 1196.7 20 5592 ok 25.4 -3.021398 1196 304 80 (34%), 72 (32%), 88 (11%)
14.06.2024 20:13 1196.5 21 5572 ok 25.5 -3.024367 1132 156 80 (35%), 72 (32%), 88 (10%)
14.06.2024 19:49 1196.5 20 5536 ok 25.5 -3.024367 1091 685 80 (33%), 72 (32%), 88 (11%)
14.06.2024 19:26 1196.4 25 5456 ok 25.5 -3.021398 1084 625 80 (34%), 72 (32%), 88 (11%)
14.06.2024 19:02 1196.5 15 5413 ok 25.5 -3.018428 1044 150 80 (35%), 72 (30%), 88 (12%)
14.06.2024 18:38 1196.6 15 5427 ok 25.6 -3.021398 1048 99 80 (35%), 72 (29%), 88 (12%)
14.06.2024 18:14 1196.7 9 5431 ok 25.6 -3.021398 1068 158 80 (34%), 72 (29%), 88 (13%)
14.06.2024 17:50 1196.5 18 5448 ok 25.6 -3.018428 988 102 80 (35%), 72 (29%), 88 (13%)
14.06.2024 17:27 1196.6 19 5443 ok 25.6 -3.018428 1020 129 80 (36%), 72 (29%), 88 (13%)
14.06.2024 17:03 1196.6 23 5412 ok 25.6 -3.015459 1100 107 80 (36%), 72 (29%), 88 (12%)
14.06.2024 16:39 1196.7 20 5295 ok 25.6 -3.021398 1036 151 80 (35%), 72 (30%), 88 (13%)
14.06.2024 16:15 1196.6 18 5161 ok 25.6 -3.024367 1140 133 80 (36%), 72 (27%), 88 (14%)
14.06.2024 15:51 1196.6 24 5035 ok 25.6 -3.024367 1088 103 80 (35%), 72 (28%), 88 (13%)
14.06.2024 15:28 1196.4 23 4878 ok 25.6 -3.021398 980 171 80 (34%), 72 (29%), 88 (13%)
14.06.2024 14:38 1196.4 25 5047 ok 25.6 -3.015459 1204 195 80 (34%), 72 (29%), 88 (13%)
14.06.2024 14:14 1196.6 24 5144 ok 25.6 -3.021398 1240 379 80 (35%), 72 (28%), 88 (12%)
14.06.2024 13:50 1196.5 16 5087 ok 25.6 -3.021398 1108 169 80 (35%), 72 (28%), 88 (13%)
14.06.2024 13:26 1196.7 19 5230 ok 25.6 -3.018428 1132 128 80 (37%), 72 (27%), 88 (14%)
14.06.2024 13:03 1196.6 19 5152 ok 25.6 -3.024367 1075 389 80 (35%), 72 (28%), 88 (14%)
14.06.2024 12:39 1196.7 18 4993 ok 25.6 -3.021398 1164 248 80 (37%), 72 (27%), 88 (14%)
14.06.2024 12:15 1196.5 16 4640 ok 25.6 -3.024367 1144 243 80 (35%), 72 (30%), 88 (12%)
14.06.2024 11:51 1196.4 15 4235 ok 25.5 -3.021398 1091 164 80 (34%), 72 (27%), 88 (14%)
14.06.2024 11:28 1196.4 19 4095 ok 25.5 -3.024367 1084 162 80 (33%), 72 (29%), 88 (13%)
14.06.2024 11:04 1196.6 26 4067 ok 25.5 -3.027337 1016 168 80 (33%), 72 (30%), 88 (11%)
14.06.2024 10:40 1196.5 21 4510 ok 25.5 -3.021398 936 118 80 (34%), 72 (29%), 88 (14%)
14.06.2024 10:16 1196.6 21 4370 ok 25.5 -3.021398 1000 177 80 (34%), 72 (29%), 88 (13%)
14.06.2024 09:52 1196.7 19 4753 ok 25.4 -3.024367 1048 527 80 (37%), 72 (29%), 88 (12%)
14.06.2024 09:29 1196.6 24 4702 ok 25.4 -3.021398 1056 119 80 (35%), 72 (31%), 88 (12%)
14.06.2024 09:05 1196.7 21 4605 ok 25.4 -3.024367 1060 545 80 (34%), 72 (30%), 88 (12%)
14.06.2024 08:41 1196.5 23 4520 ok 25.4 -3.024367 1004 126 80 (35%), 72 (30%), 88 (12%)
14.06.2024 08:17 1196.6 20 4431 ok 25.4 -3.027337 1084 179 80 (33%), 72 (30%), 88 (11%)
14.06.2024 07:53 1196.5 25 4618 ok 25.3 -3.021398 1164 972 80 (33%), 72 (32%), 88 (11%)
14.06.2024 07:30 1196.3 17 4435 ok 25.3 -3.024367 1204 168 80 (33%), 72 (32%), 88 (11%)
14.06.2024 07:06 1196.6 27 4680 ok 25.3 -3.024367 1076 208 72 (33%), 80 (32%), 88 (11%)
14.06.2024 06:42 1196.5 16 5010 ok 25.3 -3.024367 1004 120 72 (33%), 80 (31%), 88 (11%)
14.06.2024 06:18 1196.5 22 4913 ok 25.3 -3.024367 1188 350 72 (33%), 80 (32%), 88 (11%)
14.06.2024 05:54 1196.7 22 4900 ok 25.3 -3.024367 1012 114 80 (33%), 72 (32%), 88 (10%)
14.06.2024 05:31 1196.7 17 4847 ok 25.2 -3.021398 1107 259 72 (33%), 80 (32%), 88 (10%)


Duration: Duration of the file (the newest file may not be completed yet).
Empty   : Occasionally the target misses camera's field of view, resulting
          in an empty blob.
Total   : Number of total blobs in the file
Status  : "ok" if status for all blobs in the file is 0
Largest : Area of the largest blob in the file, max(ROIx * ROIy)/1000